Aérodrome :
LOGIN :

S'inscrire | Disclaimer

   EN    FR    IT 

 










Légende :    VFR   VFR Marginal   IFR   IFR Intensif   IFR Très Intensif
Visi : 
Plafond : 
>= 8 km
>= 3000ft
5 à 8 km
1000 à 3000 ft
1500m à 5 km
500 à 1000 ft
800 à 1500m
200 à 500 ft
< 800m
< 200 ft
Symboles :   Orages  Brouillard  Fortes neiges  Fortes précipitations  Vent > 20 kt
SIGMETs :   Divers  Orages  Givrage  Turbulence  Onde Orograph.  Cendres Volcan.






- Altitude de l'aérodrome : 20 ft


EBFN - Koksijde

DERNIER METAR :
  • 220355Z AUTO 30005KT 9999 SCT011/// BKN041/// 12/11 Q1022 GRN

METARs EXPIRÉS :
  • 220344Z AUTO 30006KT 9999 SCT011/// SCT028/// BKN042/// 12/11 Q1022 GRN
  • 220325Z AUTO 28004KT 9999 FEW011/// SCT028/// BKN042/// 12/11 Q1022 BLU
  • 220304Z AUTO 28004KT 9999 SCT011/// BKN042/// 12/11 Q1022 GRN
  • 220225Z AUTO 31005KT 9999 FEW009/// BKN039/// 12/11 Q1022 BLU
  • 220218Z AUTO 31006KT 9999 FEW010/// OVC039/// 12/11 Q1021 BLU
  • 220155Z AUTO 31007KT 9999 SCT010/// OVC041/// 12/12 Q1021 GRN
  • 220125Z AUTO 31007KT 9999 SCT013/// BKN044/// BKN067/// 13/12 Q1021 GRN

TAF TAF EBFN
Valide du 21 à 19h jusqu'au 22 à 07h UTC


211541Z 2119/2207 25008KT 6000 SCT012 BKN015
TEMPO 2119/2122 31015KT 4000 -RA -RADZ SCT007 BKN012
TEMPO 2119/2122 2000 RA RADZ SCT004 BKN008
PROB40
TEMPO 2122/2207 VRB03KT 3000 -SHRA BR BKN010



MET'MAP, la Météo Aéronautique d'un coup d'oeil ! - Copyright ORBIFLY Décembre 2007 - Disclaimer

ORBIFLY MET'MAP TEAM :

Programmation & Développement : Alexandra Zaïnal
Conception & Développement : Baudouin d'Aumeries
Co-Programmation & Développement : Marc-Olivier Méhu
Soutien technique & logistique : Manuel Goepfert

Contact : metmap@orbifly.com




SOURCES & CREDITS :

   NOAA